createdAt,value
2019-01-20T00:02:55.291Z,63.70
2019-01-20T00:05:55.692Z,63.70
2019-01-20T00:08:59.219Z,63.70
2019-01-20T00:11:59.742Z,63.80
2019-01-20T00:15:00.250Z,63.70
2019-01-20T00:18:03.342Z,63.60
2019-01-20T00:21:03.888Z,63.70
2019-01-20T00:24:04.294Z,63.80
2019-01-20T00:27:04.731Z,63.90
2019-01-20T00:30:07.882Z,63.90
2019-01-20T00:33:11.070Z,63.70
2019-01-20T00:36:11.623Z,63.80
2019-01-20T00:39:12.315Z,63.90
2019-01-20T00:42:12.656Z,63.80
2019-01-20T00:45:15.985Z,63.90
2019-01-20T00:48:16.292Z,63.90
2019-01-20T00:51:20.378Z,63.80
2019-01-20T00:54:21.020Z,63.90
2019-01-20T00:57:24.275Z,63.70
2019-01-20T01:00:27.766Z,63.80
2019-01-20T01:03:28.231Z,63.60
2019-01-20T01:06:28.580Z,63.80
2019-01-20T01:09:30.485Z,64.00
2019-01-20T01:12:31.480Z,64.00
2019-01-20T01:15:31.830Z,63.90
2019-01-20T01:18:32.234Z,64.00
2019-01-20T01:21:32.587Z,64.00
2019-01-20T01:24:35.004Z,64.10
2019-01-20T01:27:35.541Z,64.20
2019-01-20T01:30:35.964Z,64.00
2019-01-20T01:33:36.440Z,64.80
2019-01-20T01:36:36.800Z,64.10
2019-01-20T01:39:38.299Z,64.20
2019-01-20T01:42:41.756Z,64.20
2019-01-20T01:45:42.208Z,64.20
2019-01-20T01:48:42.638Z,64.30
2019-01-20T01:51:42.986Z,64.20
2019-01-20T01:54:46.300Z,64.90
2019-01-20T01:57:46.739Z,64.20
2019-01-20T02:00:48.836Z,64.30
2019-01-20T02:03:50.834Z,64.30
2019-01-20T02:06:51.150Z,64.40
2019-01-20T02:09:51.671Z,64.30
2019-01-20T02:12:52.900Z,64.30
2019-01-20T02:15:53.368Z,64.30
2019-01-20T02:18:53.839Z,65.10
2019-01-20T02:21:54.302Z,64.50
2019-01-20T02:24:54.632Z,65.20
2019-01-20T02:27:56.035Z,64.60
2019-01-20T02:30:58.006Z,64.60
2019-01-20T02:33:58.402Z,64.70
2019-01-20T02:36:58.769Z,64.70
2019-01-20T02:39:59.066Z,64.70
2019-01-20T02:42:59.444Z,64.70
2019-01-20T02:45:59.764Z,65.40
2019-01-20T02:49:00.190Z,64.60
2019-01-20T02:52:00.484Z,64.70
2019-01-20T02:55:00.818Z,64.70
2019-01-20T02:58:02.108Z,64.80
2019-01-20T03:01:04.923Z,64.80
2019-01-20T03:04:05.402Z,64.80
2019-01-20T03:07:05.670Z,64.80
2019-01-20T03:10:07.182Z,64.80
2019-01-20T03:13:07.560Z,64.90
2019-01-20T03:16:07.975Z,65.00
2019-01-20T03:19:09.111Z,64.90
2019-01-20T03:22:09.561Z,64.90
2019-01-20T03:25:12.719Z,65.00
2019-01-20T03:28:13.503Z,65.00
2019-01-20T03:31:13.974Z,64.90
2019-01-20T03:34:14.411Z,64.90
2019-01-20T03:37:14.709Z,65.00
2019-01-20T03:40:19.235Z,65.00
2019-01-20T03:43:19.557Z,65.10
2019-01-20T03:46:19.905Z,65.10
2019-01-20T03:49:20.299Z,65.20
2019-01-20T03:52:20.759Z,65.00
2019-01-20T03:55:21.154Z,65.10
2019-01-20T03:58:21.497Z,65.20
2019-01-20T04:01:21.926Z,65.20
2019-01-20T04:04:22.499Z,65.20
2019-01-20T04:07:22.857Z,64.80
2019-01-20T04:10:23.223Z,65.20
2019-01-20T04:13:24.935Z,65.20
2019-01-20T04:16:25.234Z,65.30
2019-01-20T04:19:25.675Z,65.20
2019-01-20T04:22:26.220Z,65.30
2019-01-20T04:25:26.607Z,65.30
2019-01-20T04:28:26.920Z,65.30
2019-01-20T04:31:27.262Z,65.40
2019-01-20T04:34:27.740Z,65.40
2019-01-20T04:37:28.230Z,65.40
2019-01-20T04:40:28.717Z,65.30
2019-01-20T04:43:31.771Z,65.40
2019-01-20T04:46:32.249Z,65.40
2019-01-20T04:49:32.721Z,65.30
2019-01-20T04:52:33.162Z,65.40
2019-01-20T04:55:33.938Z,65.30
2019-01-20T04:58:34.402Z,65.40
2019-01-20T05:01:34.757Z,65.40
2019-01-20T05:04:35.039Z,65.30
2019-01-20T05:07:35.323Z,65.40
2019-01-20T05:10:35.810Z,65.30
2019-01-20T05:13:36.256Z,65.40
2019-01-20T05:16:36.760Z,65.40
2019-01-20T05:19:37.121Z,65.50
2019-01-20T05:22:37.494Z,65.40
2019-01-20T05:25:38.066Z,65.50
2019-01-20T05:28:38.511Z,65.40
2019-01-20T05:31:38.945Z,65.50
2019-01-20T05:34:39.284Z,65.30
2019-01-20T05:37:39.694Z,65.30
2019-01-20T05:40:40.033Z,65.40
2019-01-20T05:43:40.434Z,65.50
2019-01-20T05:46:41.133Z,65.50
2019-01-20T05:49:41.456Z,65.50
2019-01-20T05:52:41.855Z,65.50
2019-01-20T05:55:42.243Z,65.40
2019-01-20T05:58:42.683Z,65.40
2019-01-20T06:01:44.342Z,65.50
2019-01-20T06:04:46.569Z,65.50
2019-01-20T06:07:47.293Z,65.50
2019-01-20T06:10:47.650Z,65.50
2019-01-20T06:13:48.392Z,65.50
2019-01-20T06:16:49.101Z,65.60
2019-01-20T06:19:49.485Z,65.60
2019-01-20T06:22:50.275Z,65.50
2019-01-20T06:25:50.954Z,65.50
2019-01-20T06:28:51.366Z,65.50
2019-01-20T06:31:51.926Z,65.50
2019-01-20T06:34:52.364Z,65.50
2019-01-20T06:37:53.131Z,65.60
2019-01-20T06:40:53.653Z,65.60
2019-01-20T06:43:54.016Z,65.60
2019-01-20T06:46:54.480Z,65.50
2019-01-20T06:49:54.896Z,66.30
2019-01-20T06:52:56.365Z,65.50
2019-01-20T06:55:56.737Z,65.50
2019-01-20T06:58:57.194Z,65.50
2019-01-20T07:01:57.625Z,65.40
2019-01-20T07:04:58.025Z,65.50
2019-01-20T07:07:58.448Z,65.50
2019-01-20T07:10:58.836Z,65.50
2019-01-20T07:13:59.408Z,65.40
2019-01-20T07:16:59.825Z,65.60
2019-01-20T07:20:00.239Z,65.50
2019-01-20T07:23:02.635Z,65.60
2019-01-20T07:26:03.062Z,65.60
2019-01-20T07:29:03.447Z,65.60
2019-01-20T07:32:04.079Z,65.80
2019-01-20T07:35:05.371Z,66.40
2019-01-20T07:38:05.792Z,66.70
2019-01-20T07:41:06.129Z,66.80
2019-01-20T07:44:06.742Z,66.80
2019-01-20T07:47:07.430Z,66.70
2019-01-20T07:50:11.768Z,66.60
2019-01-20T07:53:12.251Z,66.60
2019-01-20T07:56:12.644Z,66.50
2019-01-20T07:59:12.993Z,66.60
2019-01-20T08:02:13.448Z,66.80
2019-01-20T08:05:14.332Z,66.80
2019-01-20T08:08:14.990Z,66.60
2019-01-20T08:11:17.282Z,66.70
2019-01-20T08:14:17.945Z,67.00
2019-01-20T08:17:18.399Z,67.00
2019-01-20T08:20:20.631Z,67.10
2019-01-20T08:23:21.079Z,67.60
2019-01-20T08:26:24.341Z,68.00
2019-01-20T08:29:24.789Z,68.00
2019-01-20T08:32:25.241Z,68.00
2019-01-20T08:35:27.801Z,67.80
2019-01-20T08:38:28.160Z,67.70
2019-01-20T08:41:28.620Z,67.70
2019-01-20T08:44:32.300Z,67.60
2019-01-20T08:47:35.746Z,68.40
2019-01-20T08:50:36.423Z,67.60
2019-01-20T08:53:37.155Z,67.50
2019-01-20T08:56:37.553Z,67.40
2019-01-20T08:59:38.219Z,67.40
2019-01-20T09:02:38.641Z,67.40
2019-01-20T09:05:39.041Z,67.50
2019-01-20T09:08:39.398Z,67.60
2019-01-20T09:11:40.993Z,67.50
2019-01-20T09:14:41.395Z,67.60
2019-01-20T09:17:41.751Z,67.40
2019-01-20T09:20:42.189Z,67.30
2019-01-20T09:23:43.657Z,67.40
2019-01-20T09:26:44.145Z,67.40
2019-01-20T09:29:44.602Z,67.30
2019-01-20T09:32:44.940Z,67.30
2019-01-20T09:35:45.281Z,67.40
2019-01-20T09:38:45.621Z,67.40
2019-01-20T09:41:46.124Z,67.30
2019-01-20T09:44:46.566Z,67.30
2019-01-20T09:47:47.000Z,67.30
2019-01-20T09:50:47.476Z,67.40
2019-01-20T09:53:47.865Z,67.40
2019-01-20T09:56:48.341Z,67.30
2019-01-20T09:59:48.730Z,67.20
2019-01-20T10:02:49.031Z,67.30
2019-01-20T10:05:49.359Z,67.20
2019-01-20T10:08:49.801Z,67.20
2019-01-20T10:11:50.251Z,67.20
2019-01-20T10:14:51.640Z,67.30
2019-01-20T10:17:57.531Z,67.20
2019-01-20T10:20:59.476Z,67.30
2019-01-20T10:24:01.138Z,67.30
2019-01-20T10:27:01.562Z,67.20
2019-01-20T10:30:02.703Z,67.10
2019-01-20T10:33:03.504Z,67.20
2019-01-20T10:36:07.738Z,67.30
2019-01-20T10:39:14.816Z,67.30
2019-01-20T10:42:15.151Z,67.40
2019-01-20T10:45:15.675Z,67.30
2019-01-20T10:48:17.295Z,67.30
2019-01-20T10:51:17.596Z,67.30
2019-01-20T10:54:19.172Z,67.30
2019-01-20T10:57:19.632Z,67.30
2019-01-20T11:00:23.396Z,67.40
2019-01-20T11:03:23.983Z,67.30
2019-01-20T11:06:24.423Z,67.30
2019-01-20T11:09:25.038Z,67.30
2019-01-20T11:12:27.945Z,67.30
2019-01-20T11:15:28.653Z,67.40
2019-01-20T11:18:29.041Z,67.40
2019-01-20T11:21:29.458Z,67.40
2019-01-20T11:24:30.965Z,67.30
2019-01-20T11:27:31.425Z,67.20
2019-01-20T11:30:31.887Z,67.00
2019-01-20T11:33:34.149Z,67.00
2019-01-20T11:36:34.658Z,66.80
2019-01-20T11:39:36.652Z,66.80
2019-01-20T11:42:37.335Z,66.80
2019-01-20T11:45:37.949Z,66.90
2019-01-20T11:48:38.343Z,67.00
2019-01-20T11:51:40.647Z,67.10
2019-01-20T11:54:41.118Z,67.10
2019-01-20T11:57:41.524Z,67.20
2019-01-20T12:00:43.836Z,67.20
2019-01-20T12:03:44.342Z,67.20
2019-01-20T12:06:44.888Z,67.20
2019-01-20T12:09:45.353Z,67.20
2019-01-20T12:12:49.791Z,67.40
2019-01-20T12:15:50.334Z,67.40
2019-01-20T12:18:53.112Z,67.40
2019-01-20T12:21:53.817Z,67.30
2019-01-20T12:24:54.187Z,67.40
2019-01-20T12:27:57.523Z,67.50
2019-01-20T12:30:58.003Z,67.50
2019-01-20T12:34:00.309Z,67.40
2019-01-20T12:37:00.838Z,67.40
2019-01-20T12:40:01.425Z,67.60
2019-01-20T12:43:01.971Z,67.60
2019-01-20T12:46:03.500Z,67.80
2019-01-20T12:49:04.237Z,67.70
2019-01-20T12:52:04.815Z,67.80
2019-01-20T12:55:07.023Z,67.80
2019-01-20T12:58:08.107Z,67.70
2019-01-20T13:01:09.496Z,67.90
2019-01-20T13:04:09.896Z,67.80
2019-01-20T13:07:10.363Z,67.70
2019-01-20T13:10:12.131Z,67.80
2019-01-20T13:13:12.940Z,67.80
2019-01-20T13:16:13.430Z,67.90
2019-01-20T13:19:14.327Z,67.90
2019-01-20T13:22:14.920Z,67.80
2019-01-20T13:25:18.327Z,67.90
2019-01-20T13:28:19.192Z,67.90
2019-01-20T13:31:19.590Z,67.80
2019-01-20T13:34:20.430Z,67.90
2019-01-20T13:37:21.096Z,67.80
2019-01-20T13:40:25.183Z,67.80
2019-01-20T13:43:26.260Z,67.80
2019-01-20T13:46:27.122Z,67.70
2019-01-20T13:49:27.807Z,67.80
2019-01-20T13:52:28.188Z,67.80
2019-01-20T13:55:28.604Z,67.90
2019-01-20T13:58:29.048Z,68.60
2019-01-20T14:01:29.847Z,67.90
2019-01-20T14:04:30.279Z,67.90
2019-01-20T14:07:30.632Z,68.00
2019-01-20T14:10:31.009Z,68.00
2019-01-20T14:13:31.409Z,68.00
2019-01-20T14:16:31.868Z,67.90
2019-01-20T14:19:32.353Z,68.00
2019-01-20T14:22:32.859Z,67.90
2019-01-20T14:25:33.398Z,68.00
2019-01-20T14:28:34.400Z,68.70
2019-01-20T14:31:34.924Z,68.00
2019-01-20T14:34:35.350Z,68.00
2019-01-20T14:37:35.787Z,68.00
2019-01-20T14:40:36.956Z,68.00
2019-01-20T14:43:37.470Z,68.00
2019-01-20T14:46:38.055Z,67.90
2019-01-20T14:49:38.418Z,67.80
2019-01-20T14:52:38.896Z,67.90
2019-01-20T14:55:42.122Z,67.90
2019-01-20T14:58:42.512Z,67.80
2019-01-20T15:01:43.041Z,67.80
2019-01-20T15:04:44.636Z,67.90
2019-01-20T15:07:48.230Z,67.80
2019-01-20T15:10:48.983Z,67.90
2019-01-20T15:13:49.541Z,67.80
2019-01-20T15:16:49.985Z,67.80
2019-01-20T15:19:50.481Z,67.80
2019-01-20T15:22:50.849Z,67.80
2019-01-20T15:25:51.230Z,67.70
2019-01-20T15:28:51.700Z,67.70
2019-01-20T15:31:52.180Z,67.70
2019-01-20T15:34:52.587Z,67.70
2019-01-20T15:37:53.027Z,67.80
2019-01-20T15:40:53.447Z,67.70
2019-01-20T15:43:54.038Z,67.70
2019-01-20T15:46:54.486Z,67.70
2019-01-20T15:49:54.887Z,67.70
2019-01-20T15:53:01.945Z,67.80
2019-01-20T15:56:04.364Z,67.80
2019-01-20T15:59:04.852Z,67.80
2019-01-20T16:02:05.291Z,67.70
2019-01-20T16:05:06.722Z,67.70
2019-01-20T16:08:07.155Z,67.80
2019-01-20T16:11:07.604Z,67.70
2019-01-20T16:14:08.139Z,67.80
2019-01-20T16:17:10.168Z,67.70
2019-01-20T16:20:12.726Z,67.80
2019-01-20T16:23:15.825Z,67.80
2019-01-20T16:26:19.048Z,67.80
2019-01-20T16:29:19.595Z,67.80
2019-01-20T16:32:20.294Z,67.80
2019-01-20T16:35:20.785Z,67.90
2019-01-20T16:38:21.184Z,67.80
2019-01-20T16:41:21.626Z,67.90
2019-01-20T16:44:22.314Z,67.90
2019-01-20T16:47:22.805Z,67.90
2019-01-20T16:50:25.568Z,67.90
2019-01-20T16:53:27.236Z,67.90
2019-01-20T16:56:27.724Z,68.00
2019-01-20T16:59:31.043Z,68.00
2019-01-20T17:02:34.546Z,68.10
2019-01-20T17:05:35.570Z,68.00
2019-01-20T17:08:36.450Z,68.00
2019-01-20T17:11:38.908Z,68.10
2019-01-20T17:14:40.546Z,68.10
2019-01-20T17:17:41.054Z,68.20
2019-01-20T17:20:41.541Z,68.00
2019-01-20T17:23:42.195Z,68.00
2019-01-20T17:26:42.691Z,68.10
2019-01-20T17:29:46.164Z,68.20
2019-01-20T17:32:49.455Z,68.10
2019-01-20T17:35:49.979Z,68.10
2019-01-20T17:38:50.508Z,68.10
2019-01-20T17:41:50.973Z,68.20
2019-01-20T17:44:51.524Z,68.10
2019-01-20T17:47:51.915Z,68.10
2019-01-20T17:50:52.358Z,68.10
2019-01-20T17:53:52.855Z,68.10
2019-01-20T17:56:53.786Z,68.20
2019-01-20T17:59:54.329Z,68.20
2019-01-20T18:02:54.887Z,68.20
2019-01-20T18:05:55.865Z,68.30
2019-01-20T18:08:56.505Z,68.20
2019-01-20T18:11:56.900Z,67.90
2019-01-20T18:14:57.498Z,68.30
2019-01-20T18:17:58.874Z,68.20
2019-01-20T18:20:59.601Z,68.20
2019-01-20T18:24:00.471Z,68.30
2019-01-20T18:27:00.922Z,68.30
2019-01-20T18:30:01.566Z,68.30
2019-01-20T18:33:02.163Z,68.20
2019-01-20T18:36:05.230Z,68.20
2019-01-20T18:39:08.763Z,68.30
2019-01-20T18:42:09.515Z,68.30
2019-01-20T18:45:11.444Z,68.30
2019-01-20T18:48:11.965Z,68.40
2019-01-20T18:51:15.507Z,68.30
2019-01-20T18:54:16.100Z,68.20
2019-01-20T18:57:17.665Z,68.30
2019-01-20T19:00:38.874Z,68.20
2019-01-20T19:03:39.429Z,68.30
2019-01-20T19:06:40.027Z,68.20
2019-01-20T19:09:40.766Z,68.20
2019-01-20T19:12:41.327Z,68.30
2019-01-20T19:15:42.289Z,68.40
2019-01-20T19:18:42.829Z,68.30
2019-01-20T19:21:43.329Z,68.30
2019-01-20T19:24:43.825Z,68.40
2019-01-20T19:27:44.799Z,68.40
2019-01-20T19:30:47.165Z,68.40
2019-01-20T19:33:47.876Z,68.40
2019-01-20T19:36:51.691Z,68.50
2019-01-20T19:39:53.708Z,68.40
2019-01-20T19:42:54.428Z,68.40
2019-01-20T19:45:55.362Z,68.40
2019-01-20T19:48:55.863Z,68.40
2019-01-20T19:51:56.545Z,68.40
2019-01-20T19:54:57.102Z,68.40
2019-01-20T19:58:00.074Z,68.50
2019-01-20T20:01:00.829Z,68.50
2019-01-20T20:04:01.877Z,68.40
2019-01-20T20:07:03.559Z,68.40
2019-01-20T20:10:04.607Z,68.50
2019-01-20T20:13:05.324Z,68.40
2019-01-20T20:16:06.004Z,68.50
2019-01-20T20:19:08.948Z,68.50
2019-01-20T20:22:13.970Z,68.50
2019-01-20T20:25:19.864Z,68.50
2019-01-20T20:28:20.832Z,68.50
2019-01-20T20:31:21.276Z,68.60
2019-01-20T20:34:24.041Z,68.70
2019-01-20T20:37:24.673Z,68.50
2019-01-20T20:40:25.488Z,68.60
2019-01-20T20:43:25.963Z,68.60
2019-01-20T20:46:30.644Z,68.50
2019-01-20T20:49:31.572Z,68.50
2019-01-20T20:52:32.181Z,68.50
2019-01-20T20:55:32.870Z,68.50
2019-01-20T20:58:33.712Z,69.30
2019-01-20T21:01:36.818Z,68.60
2019-01-20T21:04:37.760Z,68.60
2019-01-20T21:07:41.498Z,68.70
2019-01-20T21:10:42.018Z,69.40
2019-01-20T21:13:48.744Z,68.80
2019-01-20T21:16:49.293Z,68.70
2019-01-20T21:19:50.974Z,68.60
2019-01-20T21:22:51.735Z,68.60
2019-01-20T21:25:54.337Z,68.70
2019-01-20T21:28:55.414Z,68.70
2019-01-20T21:31:56.357Z,68.80
2019-01-20T21:34:56.951Z,68.70
2019-01-20T21:37:57.547Z,68.70
2019-01-20T21:40:58.120Z,68.80
2019-01-20T21:43:58.818Z,68.80
2019-01-20T21:46:59.426Z,69.50
2019-01-20T21:49:59.893Z,68.70
2019-01-20T21:53:01.969Z,68.70
2019-01-20T21:56:02.663Z,68.70
2019-01-20T21:59:03.878Z,68.80
2019-01-20T22:02:07.536Z,68.80
2019-01-20T22:05:10.689Z,68.80
2019-01-20T22:08:12.455Z,68.80
2019-01-20T22:11:24.677Z,68.90
2019-01-20T22:14:27.587Z,68.90
2019-01-20T22:17:28.016Z,68.90
2019-01-20T22:20:28.555Z,68.80
2019-01-20T22:23:30.929Z,68.80
2019-01-20T22:26:31.277Z,68.80
2019-01-20T22:29:33.832Z,68.80
2019-01-20T22:32:34.281Z,68.90
2019-01-20T22:35:34.842Z,68.90
2019-01-20T22:38:35.313Z,68.90
2019-01-20T22:41:35.800Z,69.30
2019-01-20T22:44:37.897Z,68.90
2019-01-20T22:47:38.366Z,68.70
2019-01-20T22:50:38.785Z,69.10
2019-01-20T22:53:39.260Z,69.00
2019-01-20T22:56:39.742Z,69.10
2019-01-20T22:59:41.987Z,69.10
2019-01-20T23:02:45.537Z,69.10
2019-01-20T23:05:47.849Z,69.20
2019-01-20T23:08:49.359Z,69.20
2019-01-20T23:11:49.787Z,69.10
2019-01-20T23:14:50.182Z,69.00
2019-01-20T23:17:50.556Z,69.00
2019-01-20T23:20:51.007Z,69.10
2019-01-20T23:23:52.533Z,69.00
2019-01-20T23:26:54.479Z,69.10
2019-01-20T23:29:54.886Z,69.80
2019-01-20T23:32:55.432Z,69.10
2019-01-20T23:35:55.873Z,69.10
2019-01-20T23:38:56.395Z,69.10
2019-01-20T23:41:59.686Z,69.20
2019-01-20T23:45:00.019Z,69.10
2019-01-20T23:48:03.407Z,69.00
2019-01-20T23:51:03.955Z,69.10
2019-01-20T23:54:04.525Z,69.20
2019-01-20T23:57:04.955Z,69.20
